Time,TemperatureF,DewpointF,PressureIn,WindDirection,WindDirectionDegrees,WindSpeedMPH,WindSpeedGustMPH,Humidity,HourlyPrecipIn,Conditions,Clouds,dailyrainin,SoftwareType,DateUTC
2013-01-09 00:03:00,33.3,7.6,30.00,East,98,2.3,3.4,34,0.00,,,0.00,WSDL version 420,2013-01-09 07:03:00,
2013-01-09 00:08:00,33.2,7.9,30.00,East,90,2.3,4.3,34,0.00,,,0.00,WSDL version 420,2013-01-09 07:08:00,
2013-01-09 00:13:00,33.3,8.4,30.00,ENE,68,3.1,4.3,35,0.00,,,0.00,WSDL version 420,2013-01-09 07:13:00,
2013-01-09 00:18:00,33.4,8.4,30.00,NNE,23,1.1,4.3,34,0.00,,,0.00,WSDL version 420,2013-01-09 07:18:00,
2013-01-09 00:23:00,32.9,8.2,30.00,East,90,1.8,3.8,35,0.00,,,0.00,WSDL version 420,2013-01-09 07:23:00,
2013-01-09 00:28:00,32.4,7.8,30.00,East,90,0.0,3.8,35,0.00,,,0.00,WSDL version 420,2013-01-09 07:28:00,
2013-01-09 00:33:00,32.5,7.9,30.00,East,90,0.0,1.6,35,0.00,,,0.00,WSDL version 420,2013-01-09 07:33:00,
2013-01-09 00:38:00,32.5,8.0,30.00,East,90,0.0,3.1,35,0.00,,,0.00,WSDL version 420,2013-01-09 07:38:00,
2013-01-09 00:43:00,32.4,8.3,30.00,ENE,68,3.3,4.3,36,0.00,,,0.00,WSDL version 420,2013-01-09 07:43:00,
2013-01-09 00:48:00,32.5,8.9,30.00,East,90,2.0,4.3,37,0.00,,,0.00,WSDL version 420,2013-01-09 07:48:00,
2013-01-09 00:53:00,32.6,9.4,30.00,ESE,113,2.2,3.4,37,0.00,,,0.00,WSDL version 420,2013-01-09 07:53:00,
2013-01-09 00:58:00,32.6,9.8,30.00,East,79,2.6,4.7,38,0.00,,,0.00,WSDL version 420,2013-01-09 07:58:00,
2013-01-09 01:03:00,32.7,9.9,30.00,ESE,113,1.7,4.7,38,0.00,,,0.00,WSDL version 420,2013-01-09 08:03:00,
2013-01-09 01:08:00,32.4,10.2,30.00,East,90,3.4,4.0,40,0.00,,,0.00,WSDL version 420,2013-01-09 08:08:00,
2013-01-09 01:13:00,32.1,11.8,30.00,North,-999,-999.0,-999.0,39,0.00,,,0.00,WSDL version 420,2013-01-09 08:13:00,
2013-01-09 01:18:00,31.6,12.3,30.00,East,90,3.0,4.0,40,0.00,,,0.00,WSDL version 420,2013-01-09 08:18:00,
2013-01-09 01:23:00,31.5,12.3,30.00,East,90,2.8,3.8,40,0.00,,,0.00,WSDL version 420,2013-01-09 08:23:00,
2013-01-09 01:28:00,31.9,12.6,30.00,East,90,2.1,3.8,40,0.00,,,0.00,WSDL version 420,2013-01-09 08:28:00,
2013-01-09 01:33:00,31.9,12.8,30.00,East,90,2.5,2.9,40,0.00,,,0.00,WSDL version 420,2013-01-09 08:33:00,
2013-01-09 01:38:00,31.8,12.6,30.00,East,90,0.4,2.9,40,0.00,,,0.00,WSDL version 420,2013-01-09 08:38:00,
2013-01-09 01:43:00,31.9,12.6,30.00,ENE,68,0.4,2.7,40,0.00,,,0.00,WSDL version 420,2013-01-09 08:43:00,
2013-01-09 01:48:00,32.0,12.4,30.00,North,0,0.0,2.7,40,0.00,,,0.00,WSDL version 420,2013-01-09 08:48:00,
2013-01-09 01:53:00,32.1,11.9,30.00,ENE,68,2.0,2.7,40,0.00,,,0.00,WSDL version 420,2013-01-09 08:53:00,
2013-01-09 01:58:00,32.0,12.8,30.00,ENE,68,1.2,2.7,40,0.00,,,0.00,WSDL version 420,2013-01-09 08:58:00,
2013-01-09 02:03:00,32.0,12.8,30.00,ENE,68,2.0,2.7,40,0.00,,,0.00,WSDL version 420,2013-01-09 09:03:00,
2013-01-09 02:13:00,32.2,11.1,30.00,ENE,68,1.3,2.5,41,0.00,,,0.00,WSDL version 420,2013-01-09 09:13:00,
2013-01-09 02:18:00,32.2,11.0,30.00,ENE,68,2.3,3.1,41,0.00,,,0.00,WSDL version 420,2013-01-09 09:18:00,
2013-01-09 02:23:00,31.9,12.6,30.00,East,90,2.6,3.4,40,0.00,,,0.00,WSDL version 420,2013-01-09 09:23:00,
2013-01-09 02:28:00,30.9,12.2,30.00,East,90,2.4,3.6,41,0.00,,,0.00,WSDL version 420,2013-01-09 09:28:00,
2013-01-09 02:33:00,30.8,12.1,30.00,NE,45,2.0,3.6,41,0.00,,,0.00,WSDL version 420,2013-01-09 09:33:00,
2013-01-09 02:38:00,30.8,12.2,30.00,ESE,113,1.3,3.4,41,0.00,,,0.00,WSDL version 420,2013-01-09 09:38:00,
2013-01-09 02:43:00,30.3,11.9,30.00,East,96,3.5,4.9,42,0.00,,,0.00,WSDL version 420,2013-01-09 09:43:00,
2013-01-09 02:53:00,30.0,12.0,30.00,ENE,68,2.7,4.3,42,0.00,,,0.00,WSDL version 420,2013-01-09 09:53:00,
2013-01-09 02:58:00,30.1,12.3,30.00,ESE,122,2.8,3.4,43,0.00,,,0.00,WSDL version 420,2013-01-09 09:58:00,
2013-01-09 03:03:00,29.6,12.0,30.00,NE,53,2.5,3.4,43,0.00,,,0.00,WSDL version 420,2013-01-09 10:03:00,
2013-01-09 03:08:00,29.8,11.9,30.00,SE,135,2.2,3.1,42,0.00,,,0.00,WSDL version 420,2013-01-09 10:08:00,
2013-01-09 03:13:00,29.6,11.9,30.00,SE,135,2.1,3.6,43,0.00,,,0.00,WSDL version 420,2013-01-09 10:13:00,
2013-01-09 03:18:00,29.1,11.7,30.00,ESE,105,2.7,4.3,43,0.00,,,0.00,WSDL version 420,2013-01-09 10:18:00,
2013-01-09 03:23:00,29.6,12.3,30.00,ESE,105,2.4,4.3,44,0.00,,,0.00,WSDL version 420,2013-01-09 10:23:00,
2013-01-09 03:28:00,30.3,12.8,30.00,ENE,68,3.7,4.7,43,0.00,,,0.00,WSDL version 420,2013-01-09 10:28:00,